sensor_id;sensor_type;location;lat;lon;timestamp;P1;durP1;ratioP1;P2;durP2;ratioP2
39898;SDS011;25571;47.876;10.642;2022-12-10T00:01:47;22.25;;;15.15;;
39898;SDS011;25571;47.876;10.642;2022-12-10T00:04:14;23.38;;;15.10;;
39898;SDS011;25571;47.876;10.642;2022-12-10T00:06:40;23.02;;;15.60;;
39898;SDS011;25571;47.876;10.642;2022-12-10T00:09:07;24.25;;;16.35;;
39898;SDS011;25571;47.876;10.642;2022-12-10T00:11:36;22.38;;;15.02;;
39898;SDS011;25571;47.876;10.642;2022-12-10T00:14:02;20.27;;;14.05;;
39898;SDS011;25571;47.876;10.642;2022-12-10T00:16:28;21.83;;;14.77;;
39898;SDS011;25571;47.876;10.642;2022-12-10T00:18:55;20.75;;;13.50;;
39898;SDS011;25571;47.876;10.642;2022-12-10T00:21:25;22.10;;;14.70;;
39898;SDS011;25571;47.876;10.642;2022-12-10T00:23:53;22.02;;;14.52;;
39898;SDS011;25571;47.876;10.642;2022-12-10T00:26:20;21.15;;;14.70;;
39898;SDS011;25571;47.876;10.642;2022-12-10T00:28:47;14.85;;;10.93;;
39898;SDS011;25571;47.876;10.642;2022-12-10T00:31:15;25.38;;;15.63;;
39898;SDS011;25571;47.876;10.642;2022-12-10T00:33:43;25.40;;;16.80;;
39898;SDS011;25571;47.876;10.642;2022-12-10T00:36:12;22.50;;;16.25;;
39898;SDS011;25571;47.876;10.642;2022-12-10T00:38:38;21.75;;;15.32;;
39898;SDS011;25571;47.876;10.642;2022-12-10T00:41:05;20.42;;;14.70;;
39898;SDS011;25571;47.876;10.642;2022-12-10T00:43:31;22.73;;;16.23;;
39898;SDS011;25571;47.876;10.642;2022-12-10T00:45:57;24.17;;;15.52;;
39898;SDS011;25571;47.876;10.642;2022-12-10T00:48:23;24.80;;;17.15;;
39898;SDS011;25571;47.876;10.642;2022-12-10T00:50:59;21.95;;;14.82;;
39898;SDS011;25571;47.876;10.642;2022-12-10T00:53:30;24.65;;;15.52;;
39898;SDS011;25571;47.876;10.642;2022-12-10T00:55:57;21.65;;;14.80;;
39898;SDS011;25571;47.876;10.642;2022-12-10T00:58:23;20.85;;;14.77;;
39898;SDS011;25571;47.876;10.642;2022-12-10T01:00:52;21.15;;;14.55;;
39898;SDS011;25571;47.876;10.642;2022-12-10T01:03:18;20.75;;;14.18;;
39898;SDS011;25571;47.876;10.642;2022-12-10T01:05:43;22.40;;;15.25;;
39898;SDS011;25571;47.876;10.642;2022-12-10T01:08:10;22.85;;;15.35;;
39898;SDS011;25571;47.876;10.642;2022-12-10T01:10:37;21.77;;;15.65;;
39898;SDS011;25571;47.876;10.642;2022-12-10T01:13:03;23.70;;;15.10;;
39898;SDS011;25571;47.876;10.642;2022-12-10T01:15:29;23.38;;;14.93;;
39898;SDS011;25571;47.876;10.642;2022-12-10T01:17:55;22.10;;;15.70;;
39898;SDS011;25571;47.876;10.642;2022-12-10T01:20:21;23.08;;;14.80;;
39898;SDS011;25571;47.876;10.642;2022-12-10T01:22:46;24.75;;;16.17;;
39898;SDS011;25571;47.876;10.642;2022-12-10T01:25:12;21.80;;;15.00;;
39898;SDS011;25571;47.876;10.642;2022-12-10T01:27:37;25.52;;;15.40;;
39898;SDS011;25571;47.876;10.642;2022-12-10T01:30:03;23.25;;;15.30;;
39898;SDS011;25571;47.876;10.642;2022-12-10T01:32:29;24.85;;;16.10;;
39898;SDS011;25571;47.876;10.642;2022-12-10T01:34:55;24.10;;;16.35;;
39898;SDS011;25571;47.876;10.642;2022-12-10T01:37:21;24.00;;;16.95;;
39898;SDS011;25571;47.876;10.642;2022-12-10T01:39:46;26.17;;;17.33;;
39898;SDS011;25571;47.876;10.642;2022-12-10T01:42:12;22.33;;;15.82;;
39898;SDS011;25571;47.876;10.642;2022-12-10T01:47:07;21.55;;;15.80;;
39898;SDS011;25571;47.876;10.642;2022-12-10T01:49:35;22.13;;;14.80;;
39898;SDS011;25571;47.876;10.642;2022-12-10T01:54:31;18.33;;;13.60;;
39898;SDS011;25571;47.876;10.642;2022-12-10T01:57:00;20.48;;;14.30;;
39898;SDS011;25571;47.876;10.642;2022-12-10T01:59:43;19.75;;;13.40;;
39898;SDS011;25571;47.876;10.642;2022-12-10T02:02:22;19.77;;;14.50;;
39898;SDS011;25571;47.876;10.642;2022-12-10T02:10:51;18.63;;;13.05;;
39898;SDS011;25571;47.876;10.642;2022-12-10T02:13:56;19.92;;;13.60;;
39898;SDS011;25571;47.876;10.642;2022-12-10T02:16:33;20.13;;;13.48;;
39898;SDS011;25571;47.876;10.642;2022-12-10T02:19:26;21.35;;;14.63;;
39898;SDS011;25571;47.876;10.642;2022-12-10T02:22:06;19.83;;;13.55;;
39898;SDS011;25571;47.876;10.642;2022-12-10T02:24:34;22.52;;;14.23;;
39898;SDS011;25571;47.876;10.642;2022-12-10T02:27:11;22.65;;;14.65;;
39898;SDS011;25571;47.876;10.642;2022-12-10T02:29:43;19.63;;;14.77;;
39898;SDS011;25571;47.876;10.642;2022-12-10T02:32:12;22.17;;;14.38;;
39898;SDS011;25571;47.876;10.642;2022-12-10T02:34:43;19.48;;;14.10;;
39898;SDS011;25571;47.876;10.642;2022-12-10T02:37:17;19.50;;;13.50;;
39898;SDS011;25571;47.876;10.642;2022-12-10T02:39:52;22.35;;;14.48;;
39898;SDS011;25571;47.876;10.642;2022-12-10T02:44:47;24.00;;;16.15;;
39898;SDS011;25571;47.876;10.642;2022-12-10T02:47:14;22.63;;;15.57;;
39898;SDS011;25571;47.876;10.642;2022-12-10T02:49:41;21.63;;;15.40;;
39898;SDS011;25571;47.876;10.642;2022-12-10T02:52:11;22.85;;;15.30;;
39898;SDS011;25571;47.876;10.642;2022-12-10T02:57:08;20.88;;;14.98;;
39898;SDS011;25571;47.876;10.642;2022-12-10T03:08:14;27.17;;;17.40;;
39898;SDS011;25571;47.876;10.642;2022-12-10T03:11:01;22.23;;;15.05;;
39898;SDS011;25571;47.876;10.642;2022-12-10T03:13:45;23.13;;;15.20;;
39898;SDS011;25571;47.876;10.642;2022-12-10T03:16:13;22.35;;;15.07;;
39898;SDS011;25571;47.876;10.642;2022-12-10T03:18:40;20.75;;;14.50;;
39898;SDS011;25571;47.876;10.642;2022-12-10T03:21:06;21.88;;;14.32;;
39898;SDS011;25571;47.876;10.642;2022-12-10T03:23:35;22.05;;;15.38;;
39898;SDS011;25571;47.876;10.642;2022-12-10T03:26:03;21.88;;;14.70;;
39898;SDS011;25571;47.876;10.642;2022-12-10T03:28:31;22.23;;;14.85;;
39898;SDS011;25571;47.876;10.642;2022-12-10T03:31:00;21.17;;;14.73;;
39898;SDS011;25571;47.876;10.642;2022-12-10T03:33:27;20.98;;;14.50;;
39898;SDS011;25571;47.876;10.642;2022-12-10T03:35:53;20.95;;;14.95;;
39898;SDS011;25571;47.876;10.642;2022-12-10T03:38:19;23.70;;;15.05;;
39898;SDS011;25571;47.876;10.642;2022-12-10T03:40:45;21.42;;;14.45;;
39898;SDS011;25571;47.876;10.642;2022-12-10T03:43:13;21.00;;;14.82;;
39898;SDS011;25571;47.876;10.642;2022-12-10T03:45:40;20.95;;;13.60;;
39898;SDS011;25571;47.876;10.642;2022-12-10T03:48:05;21.40;;;15.48;;
39898;SDS011;25571;47.876;10.642;2022-12-10T03:50:31;29.52;;;21.08;;
39898;SDS011;25571;47.876;10.642;2022-12-10T03:52:57;41.15;;;32.83;;
39898;SDS011;25571;47.876;10.642;2022-12-10T03:55:22;38.95;;;30.23;;
39898;SDS011;25571;47.876;10.642;2022-12-10T03:57:48;30.88;;;22.42;;
39898;SDS011;25571;47.876;10.642;2022-12-10T04:00:14;26.83;;;20.35;;
39898;SDS011;25571;47.876;10.642;2022-12-10T04:02:40;36.50;;;29.02;;
39898;SDS011;25571;47.876;10.642;2022-12-10T04:05:06;71.32;;;54.15;;
39898;SDS011;25571;47.876;10.642;2022-12-10T04:07:32;145.80;;;101.82;;
39898;SDS011;25571;47.876;10.642;2022-12-10T04:09:58;89.80;;;65.90;;
39898;SDS011;25571;47.876;10.642;2022-12-10T04:12:24;43.67;;;33.83;;
39898;SDS011;25571;47.876;10.642;2022-12-10T04:14:50;33.03;;;24.33;;
39898;SDS011;25571;47.876;10.642;2022-12-10T04:17:34;29.75;;;22.15;;
39898;SDS011;25571;47.876;10.642;2022-12-10T04:19:59;24.85;;;17.63;;
39898;SDS011;25571;47.876;10.642;2022-12-10T04:22:25;25.63;;;17.38;;
39898;SDS011;25571;47.876;10.642;2022-12-10T04:25:10;27.92;;;17.52;;
39898;SDS011;25571;47.876;10.642;2022-12-10T04:27:55;26.90;;;16.05;;
39898;SDS011;25571;47.876;10.642;2022-12-10T04:30:21;25.25;;;16.50;;
39898;SDS011;25571;47.876;10.642;2022-12-10T04:32:47;28.17;;;19.00;;
39898;SDS011;25571;47.876;10.642;2022-12-10T04:35:12;26.25;;;18.40;;
39898;SDS011;25571;47.876;10.642;2022-12-10T04:37:38;28.08;;;18.88;;
39898;SDS011;25571;47.876;10.642;2022-12-10T04:40:04;29.83;;;20.30;;
39898;SDS011;25571;47.876;10.642;2022-12-10T04:42:30;29.60;;;20.13;;
39898;SDS011;25571;47.876;10.642;2022-12-10T04:44:56;27.67;;;17.55;;
39898;SDS011;25571;47.876;10.642;2022-12-10T04:47:22;27.23;;;17.38;;
39898;SDS011;25571;47.876;10.642;2022-12-10T04:49:47;27.08;;;17.42;;
39898;SDS011;25571;47.876;10.642;2022-12-10T04:52:14;28.52;;;18.42;;
39898;SDS011;25571;47.876;10.642;2022-12-10T04:54:41;28.65;;;19.45;;
39898;SDS011;25571;47.876;10.642;2022-12-10T04:57:09;32.88;;;21.50;;
39898;SDS011;25571;47.876;10.642;2022-12-10T04:59:36;32.08;;;19.88;;
39898;SDS011;25571;47.876;10.642;2022-12-10T05:02:02;29.10;;;19.20;;
39898;SDS011;25571;47.876;10.642;2022-12-10T05:04:28;29.20;;;18.13;;
39898;SDS011;25571;47.876;10.642;2022-12-10T05:06:54;31.20;;;20.77;;
39898;SDS011;25571;47.876;10.642;2022-12-10T05:09:19;32.25;;;20.05;;
39898;SDS011;25571;47.876;10.642;2022-12-10T05:11:45;30.25;;;19.23;;
39898;SDS011;25571;47.876;10.642;2022-12-10T05:14:11;32.95;;;19.60;;
39898;SDS011;25571;47.876;10.642;2022-12-10T05:16:38;32.42;;;19.90;;
39898;SDS011;25571;47.876;10.642;2022-12-10T05:19:03;33.55;;;20.58;;
39898;SDS011;25571;47.876;10.642;2022-12-10T05:21:29;32.45;;;22.15;;
39898;SDS011;25571;47.876;10.642;2022-12-10T05:24:16;34.13;;;20.33;;
39898;SDS011;25571;47.876;10.642;2022-12-10T05:26:42;31.55;;;20.10;;
39898;SDS011;25571;47.876;10.642;2022-12-10T05:29:08;33.35;;;19.80;;
39898;SDS011;25571;47.876;10.642;2022-12-10T05:31:34;30.08;;;19.75;;
39898;SDS011;25571;47.876;10.642;2022-12-10T05:34:00;35.15;;;20.30;;
39898;SDS011;25571;47.876;10.642;2022-12-10T05:36:27;36.35;;;22.00;;
39898;SDS011;25571;47.876;10.642;2022-12-10T05:38:54;34.92;;;20.45;;
39898;SDS011;25571;47.876;10.642;2022-12-10T05:41:22;30.40;;;19.30;;
39898;SDS011;25571;47.876;10.642;2022-12-10T05:43:49;32.88;;;19.23;;
39898;SDS011;25571;47.876;10.642;2022-12-10T05:46:18;31.02;;;18.88;;
39898;SDS011;25571;47.876;10.642;2022-12-10T05:48:46;31.42;;;18.98;;
39898;SDS011;25571;47.876;10.642;2022-12-10T05:51:13;32.83;;;20.35;;
39898;SDS011;25571;47.876;10.642;2022-12-10T05:53:40;28.83;;;18.10;;
39898;SDS011;25571;47.876;10.642;2022-12-10T05:56:07;29.33;;;17.70;;
39898;SDS011;25571;47.876;10.642;2022-12-10T05:58:39;31.13;;;18.70;;
39898;SDS011;25571;47.876;10.642;2022-12-10T06:01:08;29.33;;;18.33;;
39898;SDS011;25571;47.876;10.642;2022-12-10T06:03:38;29.67;;;17.85;;
39898;SDS011;25571;47.876;10.642;2022-12-10T06:06:04;33.00;;;19.23;;
39898;SDS011;25571;47.876;10.642;2022-12-10T06:08:30;28.23;;;17.63;;
39898;SDS011;25571;47.876;10.642;2022-12-10T06:11:00;28.38;;;17.63;;
39898;SDS011;25571;47.876;10.642;2022-12-10T06:13:26;27.83;;;16.00;;
39898;SDS011;25571;47.876;10.642;2022-12-10T06:15:52;30.20;;;19.23;;
39898;SDS011;25571;47.876;10.642;2022-12-10T06:18:18;28.23;;;16.98;;
39898;SDS011;25571;47.876;10.642;2022-12-10T06:20:43;26.55;;;17.67;;
39898;SDS011;25571;47.876;10.642;2022-12-10T06:23:09;29.40;;;18.90;;
39898;SDS011;25571;47.876;10.642;2022-12-10T06:25:37;29.05;;;18.52;;
39898;SDS011;25571;47.876;10.642;2022-12-10T06:28:04;30.00;;;18.83;;
39898;SDS011;25571;47.876;10.642;2022-12-10T06:30:30;32.15;;;19.52;;
39898;SDS011;25571;47.876;10.642;2022-12-10T06:32:55;29.10;;;18.58;;
39898;SDS011;25571;47.876;10.642;2022-12-10T06:35:21;29.42;;;18.02;;
39898;SDS011;25571;47.876;10.642;2022-12-10T06:37:46;34.08;;;22.20;;
39898;SDS011;25571;47.876;10.642;2022-12-10T06:40:13;35.67;;;25.30;;
39898;SDS011;25571;47.876;10.642;2022-12-10T06:42:39;37.45;;;24.33;;
39898;SDS011;25571;47.876;10.642;2022-12-10T06:45:04;30.02;;;20.50;;
39898;SDS011;25571;47.876;10.642;2022-12-10T06:47:30;33.63;;;23.08;;
39898;SDS011;25571;47.876;10.642;2022-12-10T06:49:56;34.25;;;22.73;;
39898;SDS011;25571;47.876;10.642;2022-12-10T06:52:21;32.63;;;22.15;;
39898;SDS011;25571;47.876;10.642;2022-12-10T06:54:47;29.60;;;18.33;;
39898;SDS011;25571;47.876;10.642;2022-12-10T06:57:13;26.25;;;17.33;;
39898;SDS011;25571;47.876;10.642;2022-12-10T06:59:38;30.92;;;20.25;;
39898;SDS011;25571;47.876;10.642;2022-12-10T07:02:04;30.50;;;19.85;;
39898;SDS011;25571;47.876;10.642;2022-12-10T07:04:30;33.33;;;20.42;;
39898;SDS011;25571;47.876;10.642;2022-12-10T07:06:55;30.58;;;19.92;;
39898;SDS011;25571;47.876;10.642;2022-12-10T07:09:21;32.42;;;19.67;;
39898;SDS011;25571;47.876;10.642;2022-12-10T07:11:47;30.38;;;18.67;;
39898;SDS011;25571;47.876;10.642;2022-12-10T07:14:16;29.45;;;18.55;;
39898;SDS011;25571;47.876;10.642;2022-12-10T07:16:42;25.05;;;16.83;;
39898;SDS011;25571;47.876;10.642;2022-12-10T07:19:08;31.08;;;19.48;;
39898;SDS011;25571;47.876;10.642;2022-12-10T07:21:36;27.73;;;17.63;;
39898;SDS011;25571;47.876;10.642;2022-12-10T07:24:05;29.67;;;18.85;;
39898;SDS011;25571;47.876;10.642;2022-12-10T07:26:39;30.77;;;18.55;;
39898;SDS011;25571;47.876;10.642;2022-12-10T07:29:07;25.63;;;16.23;;
39898;SDS011;25571;47.876;10.642;2022-12-10T07:31:35;25.40;;;16.35;;
39898;SDS011;25571;47.876;10.642;2022-12-10T07:34:00;22.17;;;15.52;;
39898;SDS011;25571;47.876;10.642;2022-12-10T07:36:26;25.52;;;16.88;;
39898;SDS011;25571;47.876;10.642;2022-12-10T07:38:52;24.75;;;16.40;;
39898;SDS011;25571;47.876;10.642;2022-12-10T07:41:19;22.10;;;15.20;;
39898;SDS011;25571;47.876;10.642;2022-12-10T07:43:54;25.95;;;16.05;;
39898;SDS011;25571;47.876;10.642;2022-12-10T07:46:21;25.88;;;16.83;;
39898;SDS011;25571;47.876;10.642;2022-12-10T07:51:14;23.60;;;15.73;;
39898;SDS011;25571;47.876;10.642;2022-12-10T07:53:42;25.10;;;17.23;;
39898;SDS011;25571;47.876;10.642;2022-12-10T07:56:08;26.33;;;17.20;;
39898;SDS011;25571;47.876;10.642;2022-12-10T07:58:35;25.15;;;17.27;;
39898;SDS011;25571;47.876;10.642;2022-12-10T08:01:07;29.23;;;18.38;;
39898;SDS011;25571;47.876;10.642;2022-12-10T08:03:35;24.10;;;15.48;;
39898;SDS011;25571;47.876;10.642;2022-12-10T08:06:04;25.25;;;16.75;;
39898;SDS011;25571;47.876;10.642;2022-12-10T08:08:32;26.45;;;16.98;;
39898;SDS011;25571;47.876;10.642;2022-12-10T08:11:02;26.13;;;17.73;;
39898;SDS011;25571;47.876;10.642;2022-12-10T08:13:28;25.67;;;16.60;;
39898;SDS011;25571;47.876;10.642;2022-12-10T08:16:00;25.95;;;16.98;;
39898;SDS011;25571;47.876;10.642;2022-12-10T08:18:27;24.58;;;16.20;;
39898;SDS011;25571;47.876;10.642;2022-12-10T08:20:52;27.83;;;17.15;;
39898;SDS011;25571;47.876;10.642;2022-12-10T08:23:18;28.13;;;17.88;;
39898;SDS011;25571;47.876;10.642;2022-12-10T08:25:43;28.52;;;17.58;;
39898;SDS011;25571;47.876;10.642;2022-12-10T08:28:09;28.15;;;18.80;;
39898;SDS011;25571;47.876;10.642;2022-12-10T08:30:35;29.65;;;17.77;;
39898;SDS011;25571;47.876;10.642;2022-12-10T08:33:00;32.03;;;18.67;;
39898;SDS011;25571;47.876;10.642;2022-12-10T08:35:26;33.65;;;20.38;;
39898;SDS011;25571;47.876;10.642;2022-12-10T08:37:52;30.40;;;20.00;;
39898;SDS011;25571;47.876;10.642;2022-12-10T08:40:17;36.45;;;21.05;;
39898;SDS011;25571;47.876;10.642;2022-12-10T08:42:43;40.03;;;22.95;;
39898;SDS011;25571;47.876;10.642;2022-12-10T08:45:08;35.92;;;20.70;;
39898;SDS011;25571;47.876;10.642;2022-12-10T08:47:34;34.42;;;21.58;;
39898;SDS011;25571;47.876;10.642;2022-12-10T08:50:00;37.33;;;23.15;;
39898;SDS011;25571;47.876;10.642;2022-12-10T08:52:26;36.53;;;21.15;;
39898;SDS011;25571;47.876;10.642;2022-12-10T08:54:54;32.10;;;17.57;;
39898;SDS011;25571;47.876;10.642;2022-12-10T08:57:19;36.92;;;21.67;;
39898;SDS011;25571;47.876;10.642;2022-12-10T08:59:45;37.67;;;24.88;;
39898;SDS011;25571;47.876;10.642;2022-12-10T09:02:11;42.17;;;24.92;;
39898;SDS011;25571;47.876;10.642;2022-12-10T09:04:36;39.65;;;23.48;;
39898;SDS011;25571;47.876;10.642;2022-12-10T09:07:04;51.90;;;33.28;;
39898;SDS011;25571;47.876;10.642;2022-12-10T09:09:30;52.13;;;30.45;;
39898;SDS011;25571;47.876;10.642;2022-12-10T09:11:57;42.72;;;23.67;;
39898;SDS011;25571;47.876;10.642;2022-12-10T09:14:22;46.80;;;27.95;;
39898;SDS011;25571;47.876;10.642;2022-12-10T09:16:48;34.00;;;20.48;;
39898;SDS011;25571;47.876;10.642;2022-12-10T09:19:14;75.93;;;41.05;;
39898;SDS011;25571;47.876;10.642;2022-12-10T09:21:40;50.58;;;31.02;;
39898;SDS011;25571;47.876;10.642;2022-12-10T09:24:06;37.08;;;22.38;;
39898;SDS011;25571;47.876;10.642;2022-12-10T09:26:32;33.67;;;20.02;;
39898;SDS011;25571;47.876;10.642;2022-12-10T09:28:58;32.88;;;18.85;;
39898;SDS011;25571;47.876;10.642;2022-12-10T09:31:24;28.42;;;16.95;;
39898;SDS011;25571;47.876;10.642;2022-12-10T09:33:51;30.25;;;18.50;;
39898;SDS011;25571;47.876;10.642;2022-12-10T09:36:17;32.20;;;20.60;;
39898;SDS011;25571;47.876;10.642;2022-12-10T09:38:44;35.55;;;20.38;;
39898;SDS011;25571;47.876;10.642;2022-12-10T09:46:41;44.17;;;25.77;;
39898;SDS011;25571;47.876;10.642;2022-12-10T09:52:05;30.77;;;19.42;;
39898;SDS011;25571;47.876;10.642;2022-12-10T09:54:38;30.35;;;18.20;;
39898;SDS011;25571;47.876;10.642;2022-12-10T09:57:20;31.92;;;18.65;;
39898;SDS011;25571;47.876;10.642;2022-12-10T09:59:51;28.73;;;17.42;;
39898;SDS011;25571;47.876;10.642;2022-12-10T10:04:51;34.00;;;20.73;;
39898;SDS011;25571;47.876;10.642;2022-12-10T10:07:26;33.88;;;22.33;;
39898;SDS011;25571;47.876;10.642;2022-12-10T10:09:58;31.00;;;18.73;;
39898;SDS011;25571;47.876;10.642;2022-12-10T10:12:27;27.65;;;17.60;;
39898;SDS011;25571;47.876;10.642;2022-12-10T10:14:53;30.00;;;16.90;;
39898;SDS011;25571;47.876;10.642;2022-12-10T10:17:20;29.85;;;17.33;;
39898;SDS011;25571;47.876;10.642;2022-12-10T10:19:46;28.75;;;16.80;;
39898;SDS011;25571;47.876;10.642;2022-12-10T10:22:12;29.70;;;17.50;;
39898;SDS011;25571;47.876;10.642;2022-12-10T10:24:39;28.55;;;17.85;;
39898;SDS011;25571;47.876;10.642;2022-12-10T10:27:17;29.17;;;16.75;;
39898;SDS011;25571;47.876;10.642;2022-12-10T10:29:52;28.23;;;16.48;;
39898;SDS011;25571;47.876;10.642;2022-12-10T10:32:21;30.83;;;17.98;;
39898;SDS011;25571;47.876;10.642;2022-12-10T10:35:17;28.90;;;17.17;;
39898;SDS011;25571;47.876;10.642;2022-12-10T10:38:06;28.95;;;16.95;;
39898;SDS011;25571;47.876;10.642;2022-12-10T10:40:42;28.75;;;17.05;;
39898;SDS011;25571;47.876;10.642;2022-12-10T10:43:14;26.75;;;17.55;;
39898;SDS011;25571;47.876;10.642;2022-12-10T10:45:56;31.70;;;19.25;;
39898;SDS011;25571;47.876;10.642;2022-12-10T10:48:26;32.65;;;19.80;;
39898;SDS011;25571;47.876;10.642;2022-12-10T10:50:54;32.88;;;19.33;;
39898;SDS011;25571;47.876;10.642;2022-12-10T10:56:14;34.58;;;20.52;;
39898;SDS011;25571;47.876;10.642;2022-12-10T11:01:53;32.47;;;19.85;;
39898;SDS011;25571;47.876;10.642;2022-12-10T11:07:03;33.05;;;19.95;;
39898;SDS011;25571;47.876;10.642;2022-12-10T11:09:33;36.67;;;23.13;;
39898;SDS011;25571;47.876;10.642;2022-12-10T11:12:03;31.55;;;20.33;;
39898;SDS011;25571;47.876;10.642;2022-12-10T11:14:40;33.90;;;21.80;;
39898;SDS011;25571;47.876;10.642;2022-12-10T11:19:35;31.88;;;19.60;;
39898;SDS011;25571;47.876;10.642;2022-12-10T11:22:16;33.72;;;21.58;;
39898;SDS011;25571;47.876;10.642;2022-12-10T11:27:12;29.75;;;19.50;;
39898;SDS011;25571;47.876;10.642;2022-12-10T11:29:56;30.17;;;19.98;;
39898;SDS011;25571;47.876;10.642;2022-12-10T11:40:42;32.58;;;22.92;;
39898;SDS011;25571;47.876;10.642;2022-12-10T11:48:59;32.63;;;21.15;;
39898;SDS011;25571;47.876;10.642;2022-12-10T11:51:48;38.15;;;22.98;;
39898;SDS011;25571;47.876;10.642;2022-12-10T12:00:14;32.85;;;20.00;;
39898;SDS011;25571;47.876;10.642;2022-12-10T12:06:01;30.50;;;18.60;;
39898;SDS011;25571;47.876;10.642;2022-12-10T12:08:53;27.95;;;19.10;;
39898;SDS011;25571;47.876;10.642;2022-12-10T12:14:34;24.20;;;15.85;;
39898;SDS011;25571;47.876;10.642;2022-12-10T12:17:19;25.67;;;16.52;;
39898;SDS011;25571;47.876;10.642;2022-12-10T12:20:02;24.10;;;16.48;;
39898;SDS011;25571;47.876;10.642;2022-12-10T12:22:29;26.02;;;16.10;;
39898;SDS011;25571;47.876;10.642;2022-12-10T12:25:06;25.55;;;16.90;;
39898;SDS011;25571;47.876;10.642;2022-12-10T12:27:50;22.98;;;15.98;;
39898;SDS011;25571;47.876;10.642;2022-12-10T12:30:19;26.05;;;17.15;;
39898;SDS011;25571;47.876;10.642;2022-12-10T12:33:08;25.75;;;17.95;;
39898;SDS011;25571;47.876;10.642;2022-12-10T12:38:48;28.00;;;18.55;;
39898;SDS011;25571;47.876;10.642;2022-12-10T12:46:35;31.95;;;20.13;;
39898;SDS011;25571;47.876;10.642;2022-12-10T12:49:10;31.67;;;21.75;;
39898;SDS011;25571;47.876;10.642;2022-12-10T12:51:52;34.63;;;20.10;;
39898;SDS011;25571;47.876;10.642;2022-12-10T12:54:26;32.15;;;20.52;;
39898;SDS011;25571;47.876;10.642;2022-12-10T12:59:47;26.38;;;17.83;;
39898;SDS011;25571;47.876;10.642;2022-12-10T13:05:19;32.28;;;23.92;;
39898;SDS011;25571;47.876;10.642;2022-12-10T13:14:02;23.42;;;15.75;;
39898;SDS011;25571;47.876;10.642;2022-12-10T13:16:34;23.45;;;16.40;;
39898;SDS011;25571;47.876;10.642;2022-12-10T13:32:16;18.52;;;14.82;;
39898;SDS011;25571;47.876;10.642;2022-12-10T13:34:44;17.13;;;13.85;;
39898;SDS011;25571;47.876;10.642;2022-12-10T13:37:15;21.02;;;15.98;;
39898;SDS011;25571;47.876;10.642;2022-12-10T13:39:54;19.08;;;14.30;;
39898;SDS011;25571;47.876;10.642;2022-12-10T13:42:36;14.40;;;11.43;;
39898;SDS011;25571;47.876;10.642;2022-12-10T13:47:55;20.70;;;14.45;;
39898;SDS011;25571;47.876;10.642;2022-12-10T13:50:48;20.00;;;14.18;;
39898;SDS011;25571;47.876;10.642;2022-12-10T14:01:52;21.67;;;15.45;;
39898;SDS011;25571;47.876;10.642;2022-12-10T14:07:23;19.23;;;14.52;;
39898;SDS011;25571;47.876;10.642;2022-12-10T14:09:52;24.08;;;18.73;;
39898;SDS011;25571;47.876;10.642;2022-12-10T14:12:26;26.77;;;18.75;;
39898;SDS011;25571;47.876;10.642;2022-12-10T14:14:57;23.08;;;17.52;;
39898;SDS011;25571;47.876;10.642;2022-12-10T14:17:40;23.63;;;16.95;;
39898;SDS011;25571;47.876;10.642;2022-12-10T14:20:11;21.35;;;16.33;;
39898;SDS011;25571;47.876;10.642;2022-12-10T14:22:46;20.88;;;15.30;;
39898;SDS011;25571;47.876;10.642;2022-12-10T14:25:14;21.77;;;16.38;;
39898;SDS011;25571;47.876;10.642;2022-12-10T14:27:41;19.67;;;15.45;;
39898;SDS011;25571;47.876;10.642;2022-12-10T14:30:19;20.98;;;15.05;;
39898;SDS011;25571;47.876;10.642;2022-12-10T14:32:46;20.67;;;15.18;;
39898;SDS011;25571;47.876;10.642;2022-12-10T14:35:15;21.27;;;15.73;;
39898;SDS011;25571;47.876;10.642;2022-12-10T14:37:44;24.08;;;16.45;;
39898;SDS011;25571;47.876;10.642;2022-12-10T14:40:45;33.42;;;19.30;;
39898;SDS011;25571;47.876;10.642;2022-12-10T14:43:06;47.95;;;27.50;;
39898;SDS011;25571;47.876;10.642;2022-12-10T14:45:49;51.85;;;27.05;;
39898;SDS011;25571;47.876;10.642;2022-12-10T14:48:21;32.35;;;21.33;;
39898;SDS011;25571;47.876;10.642;2022-12-10T14:50:47;31.65;;;21.42;;
39898;SDS011;25571;47.876;10.642;2022-12-10T14:53:14;28.88;;;19.77;;
39898;SDS011;25571;47.876;10.642;2022-12-10T14:55:42;26.38;;;18.10;;
39898;SDS011;25571;47.876;10.642;2022-12-10T14:58:12;24.58;;;18.05;;
39898;SDS011;25571;47.876;10.642;2022-12-10T15:00:45;24.92;;;17.83;;
39898;SDS011;25571;47.876;10.642;2022-12-10T15:03:23;24.50;;;17.35;;
39898;SDS011;25571;47.876;10.642;2022-12-10T15:06:02;23.52;;;17.35;;
39898;SDS011;25571;47.876;10.642;2022-12-10T15:08:32;22.88;;;16.55;;
39898;SDS011;25571;47.876;10.642;2022-12-10T15:10:58;23.30;;;18.00;;
39898;SDS011;25571;47.876;10.642;2022-12-10T15:15:58;23.80;;;18.67;;
39898;SDS011;25571;47.876;10.642;2022-12-10T15:18:31;20.98;;;15.32;;
39898;SDS011;25571;47.876;10.642;2022-12-10T15:21:05;19.55;;;14.77;;
39898;SDS011;25571;47.876;10.642;2022-12-10T15:23:35;16.70;;;13.57;;
39898;SDS011;25571;47.876;10.642;2022-12-10T15:26:21;19.75;;;14.77;;
39898;SDS011;25571;47.876;10.642;2022-12-10T15:29:27;18.67;;;14.45;;
39898;SDS011;25571;47.876;10.642;2022-12-10T15:31:49;17.65;;;12.85;;
39898;SDS011;25571;47.876;10.642;2022-12-10T15:34:19;15.35;;;11.50;;
39898;SDS011;25571;47.876;10.642;2022-12-10T15:41:52;18.50;;;13.02;;
39898;SDS011;25571;47.876;10.642;2022-12-10T15:49:40;15.77;;;10.32;;
39898;SDS011;25571;47.876;10.642;2022-12-10T15:52:06;16.33;;;11.65;;
39898;SDS011;25571;47.876;10.642;2022-12-10T15:54:37;13.93;;;10.85;;
39898;SDS011;25571;47.876;10.642;2022-12-10T15:59:44;26.45;;;16.85;;
39898;SDS011;25571;47.876;10.642;2022-12-10T16:07:50;36.17;;;23.45;;
39898;SDS011;25571;47.876;10.642;2022-12-10T16:10:19;29.48;;;22.98;;
39898;SDS011;25571;47.876;10.642;2022-12-10T16:12:47;23.52;;;18.08;;
39898;SDS011;25571;47.876;10.642;2022-12-10T16:17:43;20.75;;;15.27;;
39898;SDS011;25571;47.876;10.642;2022-12-10T16:20:13;16.50;;;13.07;;
39898;SDS011;25571;47.876;10.642;2022-12-10T16:22:40;22.17;;;16.38;;
39898;SDS011;25571;47.876;10.642;2022-12-10T16:25:06;26.55;;;21.63;;
39898;SDS011;25571;47.876;10.642;2022-12-10T16:27:32;31.13;;;23.90;;
39898;SDS011;25571;47.876;10.642;2022-12-10T16:29:57;47.05;;;33.80;;
39898;SDS011;25571;47.876;10.642;2022-12-10T16:32:23;27.58;;;21.02;;
39898;SDS011;25571;47.876;10.642;2022-12-10T16:34:49;31.38;;;25.45;;
39898;SDS011;25571;47.876;10.642;2022-12-10T16:37:16;37.38;;;27.83;;
39898;SDS011;25571;47.876;10.642;2022-12-10T16:39:42;30.83;;;23.70;;
39898;SDS011;25571;47.876;10.642;2022-12-10T16:42:09;28.30;;;18.63;;
39898;SDS011;25571;47.876;10.642;2022-12-10T16:44:51;30.70;;;19.90;;
39898;SDS011;25571;47.876;10.642;2022-12-10T16:47:17;24.67;;;18.05;;
39898;SDS011;25571;47.876;10.642;2022-12-10T16:49:42;22.67;;;16.60;;
39898;SDS011;25571;47.876;10.642;2022-12-10T16:52:12;24.85;;;16.90;;